sensor_id;sensor_type;location;lat;lon;timestamp;P1;durP1;ratioP1;P2;durP2;ratioP2
10731;SDS011;74907;42.812;23.216;2024-03-17T00:01:07;21.93;;;16.33;;
10731;SDS011;74907;42.812;23.216;2024-03-17T00:03:33;25.13;;;16.83;;
10731;SDS011;74907;42.812;23.216;2024-03-17T00:06:01;22.50;;;16.60;;
10731;SDS011;74907;42.812;23.216;2024-03-17T00:08:27;20.47;;;16.80;;
10731;SDS011;74907;42.812;23.216;2024-03-17T00:10:55;20.37;;;17.47;;
10731;SDS011;74907;42.812;23.216;2024-03-17T00:13:21;20.07;;;16.40;;
10731;SDS011;74907;42.812;23.216;2024-03-17T00:15:48;23.13;;;17.00;;
10731;SDS011;74907;42.812;23.216;2024-03-17T00:18:14;19.57;;;17.03;;
10731;SDS011;74907;42.812;23.216;2024-03-17T00:20:41;23.47;;;16.97;;
10731;SDS011;74907;42.812;23.216;2024-03-17T00:23:08;24.40;;;18.20;;
10731;SDS011;74907;42.812;23.216;2024-03-17T00:25:37;25.77;;;18.07;;
10731;SDS011;74907;42.812;23.216;2024-03-17T00:28:03;25.70;;;17.40;;
10731;SDS011;74907;42.812;23.216;2024-03-17T00:30:30;23.10;;;18.17;;
10731;SDS011;74907;42.812;23.216;2024-03-17T00:32:56;22.40;;;17.50;;
10731;SDS011;74907;42.812;23.216;2024-03-17T00:35:24;26.27;;;17.63;;
10731;SDS011;74907;42.812;23.216;2024-03-17T00:37:51;22.10;;;17.23;;
10731;SDS011;74907;42.812;23.216;2024-03-17T00:40:20;24.30;;;17.70;;
10731;SDS011;74907;42.812;23.216;2024-03-17T00:42:46;21.40;;;17.17;;
10731;SDS011;74907;42.812;23.216;2024-03-17T00:45:13;24.00;;;16.50;;
10731;SDS011;74907;42.812;23.216;2024-03-17T00:47:39;22.60;;;16.30;;
10731;SDS011;74907;42.812;23.216;2024-03-17T00:50:06;22.40;;;16.30;;
10731;SDS011;74907;42.812;23.216;2024-03-17T00:52:33;20.83;;;15.60;;
10731;SDS011;74907;42.812;23.216;2024-03-17T00:55:00;19.23;;;15.83;;
10731;SDS011;74907;42.812;23.216;2024-03-17T00:57:27;23.33;;;16.40;;
10731;SDS011;74907;42.812;23.216;2024-03-17T00:59:54;22.37;;;15.33;;
10731;SDS011;74907;42.812;23.216;2024-03-17T01:02:19;23.87;;;16.27;;
10731;SDS011;74907;42.812;23.216;2024-03-17T01:04:47;19.47;;;14.70;;
10731;SDS011;74907;42.812;23.216;2024-03-17T01:07:12;26.00;;;15.90;;
10731;SDS011;74907;42.812;23.216;2024-03-17T01:09:39;22.57;;;15.60;;
10731;SDS011;74907;42.812;23.216;2024-03-17T01:12:05;21.73;;;15.53;;
10731;SDS011;74907;42.812;23.216;2024-03-17T01:14:33;17.63;;;14.87;;
10731;SDS011;74907;42.812;23.216;2024-03-17T01:17:00;18.13;;;14.17;;
10731;SDS011;74907;42.812;23.216;2024-03-17T01:19:26;20.97;;;14.07;;
10731;SDS011;74907;42.812;23.216;2024-03-17T01:21:53;18.03;;;14.40;;
10731;SDS011;74907;42.812;23.216;2024-03-17T01:24:18;17.50;;;14.10;;
10731;SDS011;74907;42.812;23.216;2024-03-17T01:26:46;18.77;;;13.63;;
10731;SDS011;74907;42.812;23.216;2024-03-17T01:29:12;19.07;;;14.10;;
10731;SDS011;74907;42.812;23.216;2024-03-17T01:31:40;17.03;;;14.80;;
10731;SDS011;74907;42.812;23.216;2024-03-17T01:34:06;16.87;;;12.93;;
10731;SDS011;74907;42.812;23.216;2024-03-17T01:36:32;17.10;;;13.60;;
10731;SDS011;74907;42.812;23.216;2024-03-17T01:38:59;18.10;;;13.60;;
10731;SDS011;74907;42.812;23.216;2024-03-17T01:41:27;17.23;;;13.97;;
10731;SDS011;74907;42.812;23.216;2024-03-17T01:43:53;16.67;;;13.13;;
10731;SDS011;74907;42.812;23.216;2024-03-17T01:46:19;16.13;;;12.87;;
10731;SDS011;74907;42.812;23.216;2024-03-17T01:48:47;15.53;;;13.60;;
10731;SDS011;74907;42.812;23.216;2024-03-17T01:51:14;19.07;;;12.93;;
10731;SDS011;74907;42.812;23.216;2024-03-17T01:53:40;16.97;;;12.70;;
10731;SDS011;74907;42.812;23.216;2024-03-17T01:56:10;19.63;;;13.73;;
10731;SDS011;74907;42.812;23.216;2024-03-17T01:58:36;15.30;;;12.07;;
10731;SDS011;74907;42.812;23.216;2024-03-17T02:01:03;16.03;;;13.03;;
10731;SDS011;74907;42.812;23.216;2024-03-17T02:03:29;15.90;;;13.90;;
10731;SDS011;74907;42.812;23.216;2024-03-17T02:05:57;15.90;;;13.17;;
10731;SDS011;74907;42.812;23.216;2024-03-17T02:08:23;18.00;;;13.83;;
10731;SDS011;74907;42.812;23.216;2024-03-17T02:10:52;15.73;;;12.97;;
10731;SDS011;74907;42.812;23.216;2024-03-17T02:13:18;18.30;;;13.67;;
10731;SDS011;74907;42.812;23.216;2024-03-17T02:15:46;15.80;;;12.87;;
10731;SDS011;74907;42.812;23.216;2024-03-17T02:18:11;17.57;;;12.97;;
10731;SDS011;74907;42.812;23.216;2024-03-17T02:20:38;18.60;;;13.77;;
10731;SDS011;74907;42.812;23.216;2024-03-17T02:23:25;15.37;;;12.37;;
10731;SDS011;74907;42.812;23.216;2024-03-17T02:25:52;18.70;;;13.00;;
10731;SDS011;74907;42.812;23.216;2024-03-17T02:28:18;16.97;;;13.53;;
10731;SDS011;74907;42.812;23.216;2024-03-17T02:30:45;16.93;;;12.13;;
10731;SDS011;74907;42.812;23.216;2024-03-17T02:33:11;16.67;;;13.97;;
10731;SDS011;74907;42.812;23.216;2024-03-17T02:35:37;16.03;;;12.87;;
10731;SDS011;74907;42.812;23.216;2024-03-17T02:38:03;16.20;;;12.90;;
10731;SDS011;74907;42.812;23.216;2024-03-17T02:40:31;15.57;;;13.40;;
10731;SDS011;74907;42.812;23.216;2024-03-17T02:42:57;18.13;;;13.30;;
10731;SDS011;74907;42.812;23.216;2024-03-17T02:45:24;17.20;;;12.87;;
10731;SDS011;74907;42.812;23.216;2024-03-17T02:47:50;15.43;;;13.20;;
10731;SDS011;74907;42.812;23.216;2024-03-17T02:50:17;16.07;;;13.07;;
10731;SDS011;74907;42.812;23.216;2024-03-17T02:52:44;18.93;;;13.20;;
10731;SDS011;74907;42.812;23.216;2024-03-17T02:55:10;17.63;;;13.13;;
10731;SDS011;74907;42.812;23.216;2024-03-17T02:57:38;19.63;;;13.47;;
10731;SDS011;74907;42.812;23.216;2024-03-17T03:00:06;16.03;;;12.87;;
10731;SDS011;74907;42.812;23.216;2024-03-17T03:02:38;17.33;;;13.27;;
10731;SDS011;74907;42.812;23.216;2024-03-17T03:05:04;15.40;;;12.90;;
10731;SDS011;74907;42.812;23.216;2024-03-17T03:07:31;16.47;;;13.50;;
10731;SDS011;74907;42.812;23.216;2024-03-17T03:09:58;12.93;;;11.67;;
10731;SDS011;74907;42.812;23.216;2024-03-17T03:12:25;15.30;;;12.60;;
10731;SDS011;74907;42.812;23.216;2024-03-17T03:14:53;15.73;;;12.93;;
10731;SDS011;74907;42.812;23.216;2024-03-17T03:17:20;15.27;;;13.30;;
10731;SDS011;74907;42.812;23.216;2024-03-17T03:19:46;14.80;;;13.27;;
10731;SDS011;74907;42.812;23.216;2024-03-17T03:22:13;18.13;;;12.53;;
10731;SDS011;74907;42.812;23.216;2024-03-17T03:24:40;14.83;;;13.23;;
10731;SDS011;74907;42.812;23.216;2024-03-17T03:27:07;16.67;;;13.20;;
10731;SDS011;74907;42.812;23.216;2024-03-17T03:29:34;15.37;;;12.67;;
10731;SDS011;74907;42.812;23.216;2024-03-17T03:32:02;15.53;;;12.90;;
10731;SDS011;74907;42.812;23.216;2024-03-17T03:34:28;13.50;;;12.10;;
10731;SDS011;74907;42.812;23.216;2024-03-17T03:36:55;13.57;;;11.83;;
10731;SDS011;74907;42.812;23.216;2024-03-17T03:39:22;14.07;;;12.00;;
10731;SDS011;74907;42.812;23.216;2024-03-17T03:41:51;13.50;;;12.03;;
10731;SDS011;74907;42.812;23.216;2024-03-17T03:44:17;14.07;;;11.70;;
10731;SDS011;74907;42.812;23.216;2024-03-17T03:46:44;14.57;;;12.07;;
10731;SDS011;74907;42.812;23.216;2024-03-17T03:49:13;14.83;;;12.43;;
10731;SDS011;74907;42.812;23.216;2024-03-17T03:51:39;14.67;;;12.03;;
10731;SDS011;74907;42.812;23.216;2024-03-17T03:54:06;14.43;;;11.97;;
10731;SDS011;74907;42.812;23.216;2024-03-17T03:56:33;14.27;;;11.17;;
10731;SDS011;74907;42.812;23.216;2024-03-17T03:59:01;13.00;;;11.60;;
10731;SDS011;74907;42.812;23.216;2024-03-17T04:01:28;15.23;;;11.83;;
10731;SDS011;74907;42.812;23.216;2024-03-17T04:03:54;12.57;;;11.27;;
10731;SDS011;74907;42.812;23.216;2024-03-17T04:06:22;12.90;;;11.53;;
10731;SDS011;74907;42.812;23.216;2024-03-17T04:08:49;15.87;;;13.10;;
10731;SDS011;74907;42.812;23.216;2024-03-17T04:11:16;14.10;;;11.93;;
10731;SDS011;74907;42.812;23.216;2024-03-17T04:13:43;14.73;;;12.17;;
10731;SDS011;74907;42.812;23.216;2024-03-17T04:16:09;15.23;;;12.77;;
10731;SDS011;74907;42.812;23.216;2024-03-17T04:18:37;14.67;;;13.00;;
10731;SDS011;74907;42.812;23.216;2024-03-17T04:21:04;15.17;;;12.57;;
10731;SDS011;74907;42.812;23.216;2024-03-17T04:23:34;16.33;;;12.93;;
10731;SDS011;74907;42.812;23.216;2024-03-17T04:26:00;17.63;;;14.13;;
10731;SDS011;74907;42.812;23.216;2024-03-17T04:28:28;19.27;;;14.77;;
10731;SDS011;74907;42.812;23.216;2024-03-17T04:31:02;18.80;;;15.23;;
10731;SDS011;74907;42.812;23.216;2024-03-17T04:33:30;18.37;;;14.83;;
10731;SDS011;74907;42.812;23.216;2024-03-17T04:35:57;18.07;;;14.13;;
10731;SDS011;74907;42.812;23.216;2024-03-17T04:38:24;17.63;;;14.17;;
10731;SDS011;74907;42.812;23.216;2024-03-17T04:40:52;17.87;;;15.97;;
10731;SDS011;74907;42.812;23.216;2024-03-17T04:43:28;18.30;;;14.87;;
10731;SDS011;74907;42.812;23.216;2024-03-17T04:46:00;18.63;;;15.10;;
10731;SDS011;74907;42.812;23.216;2024-03-17T04:48:29;21.13;;;16.40;;
10731;SDS011;74907;42.812;23.216;2024-03-17T04:50:56;23.10;;;18.70;;
10731;SDS011;74907;42.812;23.216;2024-03-17T04:53:23;21.60;;;16.60;;
10731;SDS011;74907;42.812;23.216;2024-03-17T04:55:58;18.33;;;15.73;;
10731;SDS011;74907;42.812;23.216;2024-03-17T04:58:26;16.60;;;13.97;;
10731;SDS011;74907;42.812;23.216;2024-03-17T05:00:53;20.43;;;15.70;;
10731;SDS011;74907;42.812;23.216;2024-03-17T05:03:20;20.00;;;15.27;;
10731;SDS011;74907;42.812;23.216;2024-03-17T05:05:47;16.90;;;14.93;;
10731;SDS011;74907;42.812;23.216;2024-03-17T05:08:14;19.47;;;14.97;;
10731;SDS011;74907;42.812;23.216;2024-03-17T05:10:41;18.10;;;13.90;;
10731;SDS011;74907;42.812;23.216;2024-03-17T05:13:09;20.17;;;15.80;;
10731;SDS011;74907;42.812;23.216;2024-03-17T05:15:36;15.70;;;14.10;;
10731;SDS011;74907;42.812;23.216;2024-03-17T05:18:03;22.30;;;14.30;;
10731;SDS011;74907;42.812;23.216;2024-03-17T05:20:31;15.30;;;12.57;;
10731;SDS011;74907;42.812;23.216;2024-03-17T05:22:57;18.40;;;13.40;;
10731;SDS011;74907;42.812;23.216;2024-03-17T05:25:24;18.40;;;14.07;;
10731;SDS011;74907;42.812;23.216;2024-03-17T05:27:51;17.30;;;14.40;;
10731;SDS011;74907;42.812;23.216;2024-03-17T05:30:19;20.27;;;13.80;;
10731;SDS011;74907;42.812;23.216;2024-03-17T05:32:45;18.23;;;14.43;;
10731;SDS011;74907;42.812;23.216;2024-03-17T05:35:12;16.63;;;13.77;;
10731;SDS011;74907;42.812;23.216;2024-03-17T05:37:39;15.67;;;13.77;;
10731;SDS011;74907;42.812;23.216;2024-03-17T05:40:07;18.23;;;14.00;;
10731;SDS011;74907;42.812;23.216;2024-03-17T05:42:37;14.67;;;12.43;;
10731;SDS011;74907;42.812;23.216;2024-03-17T05:45:04;15.67;;;13.63;;
10731;SDS011;74907;42.812;23.216;2024-03-17T05:47:37;15.50;;;13.63;;
10731;SDS011;74907;42.812;23.216;2024-03-17T05:50:04;16.77;;;14.77;;
10731;SDS011;74907;42.812;23.216;2024-03-17T05:52:31;17.27;;;15.47;;
10731;SDS011;74907;42.812;23.216;2024-03-17T05:54:58;19.47;;;16.50;;
10731;SDS011;74907;42.812;23.216;2024-03-17T05:57:24;16.87;;;15.07;;
10731;SDS011;74907;42.812;23.216;2024-03-17T05:59:51;18.10;;;16.10;;
10731;SDS011;74907;42.812;23.216;2024-03-17T06:02:18;21.27;;;16.23;;
10731;SDS011;74907;42.812;23.216;2024-03-17T06:04:46;20.10;;;16.33;;
10731;SDS011;74907;42.812;23.216;2024-03-17T06:07:13;19.13;;;16.33;;
10731;SDS011;74907;42.812;23.216;2024-03-17T06:09:39;24.93;;;17.50;;
10731;SDS011;74907;42.812;23.216;2024-03-17T06:12:06;18.73;;;15.27;;
10731;SDS011;74907;42.812;23.216;2024-03-17T06:14:33;18.37;;;15.63;;
10731;SDS011;74907;42.812;23.216;2024-03-17T06:17:00;20.70;;;16.73;;
10731;SDS011;74907;42.812;23.216;2024-03-17T06:19:27;21.63;;;17.63;;
10731;SDS011;74907;42.812;23.216;2024-03-17T06:21:55;26.20;;;22.83;;
10731;SDS011;74907;42.812;23.216;2024-03-17T06:24:23;22.17;;;19.77;;
10731;SDS011;74907;42.812;23.216;2024-03-17T06:26:50;22.13;;;19.73;;
10731;SDS011;74907;42.812;23.216;2024-03-17T06:29:16;20.07;;;18.23;;
10731;SDS011;74907;42.812;23.216;2024-03-17T06:31:45;21.63;;;18.97;;
10731;SDS011;74907;42.812;23.216;2024-03-17T06:34:12;18.07;;;16.27;;
10731;SDS011;74907;42.812;23.216;2024-03-17T06:36:41;17.33;;;15.67;;
10731;SDS011;74907;42.812;23.216;2024-03-17T06:39:10;18.00;;;16.10;;
10731;SDS011;74907;42.812;23.216;2024-03-17T06:41:41;19.77;;;17.03;;
10731;SDS011;74907;42.812;23.216;2024-03-17T06:44:07;20.77;;;18.03;;
10731;SDS011;74907;42.812;23.216;2024-03-17T06:46:34;20.13;;;17.90;;
10731;SDS011;74907;42.812;23.216;2024-03-17T06:49:02;15.20;;;13.63;;
10731;SDS011;74907;42.812;23.216;2024-03-17T06:51:28;13.00;;;11.63;;
10731;SDS011;74907;42.812;23.216;2024-03-17T06:53:55;13.10;;;11.77;;
10731;SDS011;74907;42.812;23.216;2024-03-17T06:56:23;14.27;;;12.90;;
10731;SDS011;74907;42.812;23.216;2024-03-17T06:58:50;13.17;;;11.73;;
10731;SDS011;74907;42.812;23.216;2024-03-17T07:01:18;14.57;;;13.03;;
10731;SDS011;74907;42.812;23.216;2024-03-17T07:03:45;15.40;;;13.90;;
10731;SDS011;74907;42.812;23.216;2024-03-17T07:06:12;18.00;;;15.43;;
10731;SDS011;74907;42.812;23.216;2024-03-17T07:08:39;18.87;;;16.70;;
10731;SDS011;74907;42.812;23.216;2024-03-17T07:11:07;17.63;;;15.83;;
10731;SDS011;74907;42.812;23.216;2024-03-17T07:13:35;12.70;;;11.33;;
10731;SDS011;74907;42.812;23.216;2024-03-17T07:16:04;12.80;;;11.50;;
10731;SDS011;74907;42.812;23.216;2024-03-17T07:18:32;14.30;;;12.30;;
10731;SDS011;74907;42.812;23.216;2024-03-17T07:20:59;15.27;;;12.30;;
10731;SDS011;74907;42.812;23.216;2024-03-17T07:23:30;15.53;;;13.47;;
10731;SDS011;74907;42.812;23.216;2024-03-17T07:26:00;14.43;;;13.00;;
10731;SDS011;74907;42.812;23.216;2024-03-17T07:28:30;15.13;;;13.53;;
10731;SDS011;74907;42.812;23.216;2024-03-17T07:30:59;15.67;;;14.07;;
10731;SDS011;74907;42.812;23.216;2024-03-17T07:33:26;16.63;;;13.43;;
10731;SDS011;74907;42.812;23.216;2024-03-17T07:35:55;16.37;;;14.67;;
10731;SDS011;74907;42.812;23.216;2024-03-17T07:38:25;15.17;;;13.60;;
10731;SDS011;74907;42.812;23.216;2024-03-17T07:40:56;14.80;;;13.03;;
10731;SDS011;74907;42.812;23.216;2024-03-17T07:43:24;13.47;;;11.93;;
10731;SDS011;74907;42.812;23.216;2024-03-17T07:46:03;15.63;;;12.07;;
10731;SDS011;74907;42.812;23.216;2024-03-17T07:48:30;13.87;;;12.13;;
10731;SDS011;74907;42.812;23.216;2024-03-17T07:50:59;12.93;;;11.43;;
10731;SDS011;74907;42.812;23.216;2024-03-17T07:53:28;12.70;;;11.47;;
10731;SDS011;74907;42.812;23.216;2024-03-17T07:55:59;12.80;;;11.40;;
10731;SDS011;74907;42.812;23.216;2024-03-17T07:58:26;19.60;;;16.67;;
10731;SDS011;74907;42.812;23.216;2024-03-17T08:00:56;22.20;;;19.43;;
10731;SDS011;74907;42.812;23.216;2024-03-17T08:03:26;19.93;;;17.83;;
10731;SDS011;74907;42.812;23.216;2024-03-17T08:05:53;13.77;;;12.37;;
10731;SDS011;74907;42.812;23.216;2024-03-17T08:08:19;16.03;;;14.37;;
10731;SDS011;74907;42.812;23.216;2024-03-17T08:10:46;15.70;;;14.03;;
10731;SDS011;74907;42.812;23.216;2024-03-17T08:13:13;15.67;;;13.97;;
10731;SDS011;74907;42.812;23.216;2024-03-17T08:15:41;14.23;;;12.93;;
10731;SDS011;74907;42.812;23.216;2024-03-17T08:18:08;14.43;;;12.57;;
10731;SDS011;74907;42.812;23.216;2024-03-17T08:20:37;15.07;;;11.77;;
10731;SDS011;74907;42.812;23.216;2024-03-17T08:23:04;14.37;;;11.43;;
10731;SDS011;74907;42.812;23.216;2024-03-17T08:25:32;13.70;;;11.97;;
10731;SDS011;74907;42.812;23.216;2024-03-17T08:27:58;11.40;;;10.30;;
10731;SDS011;74907;42.812;23.216;2024-03-17T08:30:25;11.37;;;10.27;;
10731;SDS011;74907;42.812;23.216;2024-03-17T08:32:52;8.20;;;7.50;;
10731;SDS011;74907;42.812;23.216;2024-03-17T08:35:18;12.57;;;9.97;;
10731;SDS011;74907;42.812;23.216;2024-03-17T08:37:47;11.33;;;10.07;;
10731;SDS011;74907;42.812;23.216;2024-03-17T08:40:14;11.10;;;10.07;;
10731;SDS011;74907;42.812;23.216;2024-03-17T08:42:41;10.07;;;9.17;;
10731;SDS011;74907;42.812;23.216;2024-03-17T08:45:08;8.87;;;8.13;;
10731;SDS011;74907;42.812;23.216;2024-03-17T08:47:39;9.13;;;8.33;;
10731;SDS011;74907;42.812;23.216;2024-03-17T08:50:06;11.37;;;10.23;;
10731;SDS011;74907;42.812;23.216;2024-03-17T08:52:37;9.27;;;8.37;;
10731;SDS011;74907;42.812;23.216;2024-03-17T08:55:05;7.43;;;6.80;;
10731;SDS011;74907;42.812;23.216;2024-03-17T08:57:38;8.93;;;8.10;;
10731;SDS011;74907;42.812;23.216;2024-03-17T09:00:06;8.77;;;7.97;;
10731;SDS011;74907;42.812;23.216;2024-03-17T09:02:34;10.93;;;9.93;;
10731;SDS011;74907;42.812;23.216;2024-03-17T09:05:01;8.10;;;7.30;;
10731;SDS011;74907;42.812;23.216;2024-03-17T09:07:29;8.13;;;7.53;;
10731;SDS011;74907;42.812;23.216;2024-03-17T09:09:56;8.43;;;7.63;;
10731;SDS011;74907;42.812;23.216;2024-03-17T09:12:24;7.80;;;7.20;;
10731;SDS011;74907;42.812;23.216;2024-03-17T09:14:50;8.30;;;7.63;;
10731;SDS011;74907;42.812;23.216;2024-03-17T09:17:17;8.93;;;8.10;;
10731;SDS011;74907;42.812;23.216;2024-03-17T09:19:45;7.20;;;6.70;;
10731;SDS011;74907;42.812;23.216;2024-03-17T09:22:12;7.73;;;7.03;;
10731;SDS011;74907;42.812;23.216;2024-03-17T09:24:39;8.43;;;7.73;;
10731;SDS011;74907;42.812;23.216;2024-03-17T09:27:06;8.07;;;7.47;;
10731;SDS011;74907;42.812;23.216;2024-03-17T09:29:35;8.07;;;7.43;;
10731;SDS011;74907;42.812;23.216;2024-03-17T09:32:03;8.43;;;7.73;;
10731;SDS011;74907;42.812;23.216;2024-03-17T09:34:30;9.50;;;8.37;;
10731;SDS011;74907;42.812;23.216;2024-03-17T09:36:56;9.33;;;8.57;;
10731;SDS011;74907;42.812;23.216;2024-03-17T09:39:23;7.83;;;7.13;;
10731;SDS011;74907;42.812;23.216;2024-03-17T09:41:50;8.40;;;7.57;;
10731;SDS011;74907;42.812;23.216;2024-03-17T09:44:16;9.37;;;8.20;;
10731;SDS011;74907;42.812;23.216;2024-03-17T09:46:45;12.20;;;9.87;;
10731;SDS011;74907;42.812;23.216;2024-03-17T09:49:14;8.97;;;8.07;;
10731;SDS011;74907;42.812;23.216;2024-03-17T09:51:42;9.67;;;8.77;;
10731;SDS011;74907;42.812;23.216;2024-03-17T09:54:15;10.33;;;9.33;;
10731;SDS011;74907;42.812;23.216;2024-03-17T09:56:44;10.53;;;8.27;;
10731;SDS011;74907;42.812;23.216;2024-03-17T09:59:11;12.67;;;9.60;;
10731;SDS011;74907;42.812;23.216;2024-03-17T10:01:37;9.40;;;8.33;;
10731;SDS011;74907;42.812;23.216;2024-03-17T10:04:06;8.97;;;8.07;;
10731;SDS011;74907;42.812;23.216;2024-03-17T10:06:35;9.43;;;8.50;;
10731;SDS011;74907;42.812;23.216;2024-03-17T10:09:13;9.73;;;8.73;;
10731;SDS011;74907;42.812;23.216;2024-03-17T10:11:46;11.73;;;10.60;;
10731;SDS011;74907;42.812;23.216;2024-03-17T10:14:15;10.53;;;9.30;;
10731;SDS011;74907;42.812;23.216;2024-03-17T10:16:43;9.17;;;8.33;;
10731;SDS011;74907;42.812;23.216;2024-03-17T10:19:13;8.07;;;7.47;;
10731;SDS011;74907;42.812;23.216;2024-03-17T10:21:41;7.30;;;6.60;;
10731;SDS011;74907;42.812;23.216;2024-03-17T10:24:09;8.00;;;6.03;;
10731;SDS011;74907;42.812;23.216;2024-03-17T10:26:38;6.47;;;6.07;;
10731;SDS011;74907;42.812;23.216;2024-03-17T10:29:21;5.20;;;4.90;;
10731;SDS011;74907;42.812;23.216;2024-03-17T10:31:49;5.30;;;4.90;;
10731;SDS011;74907;42.812;23.216;2024-03-17T10:34:18;5.30;;;4.90;;
10731;SDS011;74907;42.812;23.216;2024-03-17T10:36:46;4.07;;;3.77;;
10731;SDS011;74907;42.812;23.216;2024-03-17T10:39:22;4.50;;;4.20;;
10731;SDS011;74907;42.812;23.216;2024-03-17T10:41:59;5.70;;;5.30;;
10731;SDS011;74907;42.812;23.216;2024-03-17T10:44:27;4.10;;;3.80;;
10731;SDS011;74907;42.812;23.216;2024-03-17T10:46:55;4.93;;;4.53;;
10731;SDS011;74907;42.812;23.216;2024-03-17T10:49:27;4.70;;;4.40;;
10731;SDS011;74907;42.812;23.216;2024-03-17T10:51:58;5.57;;;4.80;;
10731;SDS011;74907;42.812;23.216;2024-03-17T10:54:25;5.37;;;4.93;;
10731;SDS011;74907;42.812;23.216;2024-03-17T10:56:54;5.90;;;5.30;;
10731;SDS011;74907;42.812;23.216;2024-03-17T10:59:23;5.27;;;4.87;;
10731;SDS011;74907;42.812;23.216;2024-03-17T11:02:00;5.23;;;4.73;;
10731;SDS011;74907;42.812;23.216;2024-03-17T11:04:30;5.33;;;4.83;;
10731;SDS011;74907;42.812;23.216;2024-03-17T11:06:57;5.27;;;4.73;;
10731;SDS011;74907;42.812;23.216;2024-03-17T11:09:25;5.17;;;4.70;;
10731;SDS011;74907;42.812;23.216;2024-03-17T11:11:52;6.00;;;5.40;;
10731;SDS011;74907;42.812;23.216;2024-03-17T11:14:19;5.43;;;5.00;;
10731;SDS011;74907;42.812;23.216;2024-03-17T11:16:47;5.03;;;4.63;;
10731;SDS011;74907;42.812;23.216;2024-03-17T11:19:14;5.77;;;5.37;;
10731;SDS011;74907;42.812;23.216;2024-03-17T11:21:43;6.07;;;5.43;;
10731;SDS011;74907;42.812;23.216;2024-03-17T11:24:18;5.73;;;5.23;;
10731;SDS011;74907;42.812;23.216;2024-03-17T11:26:45;5.87;;;5.30;;
10731;SDS011;74907;42.812;23.216;2024-03-17T11:29:25;8.63;;;6.80;;
10731;SDS011;74907;42.812;23.216;2024-03-17T11:31:53;5.30;;;4.90;;
10731;SDS011;74907;42.812;23.216;2024-03-17T11:34:33;4.63;;;4.17;;
10731;SDS011;74907;42.812;23.216;2024-03-17T11:37:06;5.80;;;5.30;;
10731;SDS011;74907;42.812;23.216;2024-03-17T11:39:46;6.87;;;6.17;;
10731;SDS011;74907;42.812;23.216;2024-03-17T11:42:21;5.00;;;4.60;;
10731;SDS011;74907;42.812;23.216;2024-03-17T11:45:00;4.97;;;4.57;;
10731;SDS011;74907;42.812;23.216;2024-03-17T11:47:38;5.53;;;5.20;;
10731;SDS011;74907;42.812;23.216;2024-03-17T11:50:05;5.43;;;5.03;;
10731;SDS011;74907;42.812;23.216;2024-03-17T11:52:36;5.40;;;4.93;;
10731;SDS011;74907;42.812;23.216;2024-03-17T11:55:03;5.60;;;5.10;;
10731;SDS011;74907;42.812;23.216;2024-03-17T11:57:30;6.27;;;5.77;;
10731;SDS011;74907;42.812;23.216;2024-03-17T11:59:56;6.07;;;5.47;;
10731;SDS011;74907;42.812;23.216;2024-03-17T12:02:25;7.33;;;6.70;;
10731;SDS011;74907;42.812;23.216;2024-03-17T12:04:51;8.00;;;7.30;;
10731;SDS011;74907;42.812;23.216;2024-03-17T12:07:19;7.07;;;6.37;;
10731;SDS011;74907;42.812;23.216;2024-03-17T12:09:50;6.33;;;5.93;;
10731;SDS011;74907;42.812;23.216;2024-03-17T12:12:19;5.33;;;4.90;;
10731;SDS011;74907;42.812;23.216;2024-03-17T12:14:46;6.07;;;5.60;;
10731;SDS011;74907;42.812;23.216;2024-03-17T12:17:14;6.00;;;5.57;;
10731;SDS011;74907;42.812;23.216;2024-03-17T12:19:45;5.77;;;5.37;;
10731;SDS011;74907;42.812;23.216;2024-03-17T12:22:15;6.70;;;6.20;;
10731;SDS011;74907;42.812;23.216;2024-03-17T12:24:43;6.23;;;5.73;;
10731;SDS011;74907;42.812;23.216;2024-03-17T12:27:16;6.17;;;5.57;;
10731;SDS011;74907;42.812;23.216;2024-03-17T12:29:43;6.77;;;6.17;;
10731;SDS011;74907;42.812;23.216;2024-03-17T12:32:11;5.37;;;5.00;;
10731;SDS011;74907;42.812;23.216;2024-03-17T12:34:39;7.83;;;7.13;;
10731;SDS011;74907;42.812;23.216;2024-03-17T12:37:06;6.27;;;5.77;;
10731;SDS011;74907;42.812;23.216;2024-03-17T12:39:33;7.80;;;7.20;;
10731;SDS011;74907;42.812;23.216;2024-03-17T12:42:05;7.13;;;6.63;;
10731;SDS011;74907;42.812;23.216;2024-03-17T12:44:34;7.87;;;6.93;;
10731;SDS011;74907;42.812;23.216;2024-03-17T12:47:02;7.73;;;7.13;;
10731;SDS011;74907;42.812;23.216;2024-03-17T12:49:29;7.77;;;7.20;;
10731;SDS011;74907;42.812;23.216;2024-03-17T12:51:57;7.33;;;6.83;;
10731;SDS011;74907;42.812;23.216;2024-03-17T12:54:25;7.80;;;7.10;;
10731;SDS011;74907;42.812;23.216;2024-03-17T12:56:51;8.43;;;7.73;;
10731;SDS011;74907;42.812;23.216;2024-03-17T12:59:49;9.53;;;8.73;;
10731;SDS011;74907;42.812;23.216;2024-03-17T13:02:33;13.13;;;9.10;;
10731;SDS011;74907;42.812;23.216;2024-03-17T13:05:07;9.37;;;8.57;;
10731;SDS011;74907;42.812;23.216;2024-03-17T13:07:36;8.47;;;7.77;;
10731;SDS011;74907;42.812;23.216;2024-03-17T13:10:02;10.70;;;9.70;;
10731;SDS011;74907;42.812;23.216;2024-03-17T13:12:32;7.93;;;7.37;;
10731;SDS011;74907;42.812;23.216;2024-03-17T13:15:00;7.53;;;7.00;;
10731;SDS011;74907;42.812;23.216;2024-03-17T13:17:28;9.13;;;8.37;;
10731;SDS011;74907;42.812;23.216;2024-03-17T13:19:55;8.77;;;8.07;;
10731;SDS011;74907;42.812;23.216;2024-03-17T13:22:22;8.40;;;7.80;;
10731;SDS011;74907;42.812;23.216;2024-03-17T13:24:49;8.37;;;7.67;;
10731;SDS011;74907;42.812;23.216;2024-03-17T13:27:16;8.50;;;7.80;;
10731;SDS011;74907;42.812;23.216;2024-03-17T13:29:46;8.60;;;7.87;;
10731;SDS011;74907;42.812;23.216;2024-03-17T13:32:15;10.43;;;9.43;;
10731;SDS011;74907;42.812;23.216;2024-03-17T13:34:42;9.60;;;8.77;;
10731;SDS011;74907;42.812;23.216;2024-03-17T13:37:09;8.23;;;7.63;;
10731;SDS011;74907;42.812;23.216;2024-03-17T13:39:36;18.37;;;16.50;;
10731;SDS011;74907;42.812;23.216;2024-03-17T13:42:03;10.47;;;9.57;;
10731;SDS011;74907;42.812;23.216;2024-03-17T13:44:31;24.23;;;20.57;;
10731;SDS011;74907;42.812;23.216;2024-03-17T13:46:58;10.83;;;9.93;;
10731;SDS011;74907;42.812;23.216;2024-03-17T13:49:27;9.33;;;8.50;;
10731;SDS011;74907;42.812;23.216;2024-03-17T13:51:54;7.97;;;7.37;;
10731;SDS011;74907;42.812;23.216;2024-03-17T13:54:22;8.27;;;7.63;;
10731;SDS011;74907;42.812;23.216;2024-03-17T13:56:49;7.70;;;7.17;;
10731;SDS011;74907;42.812;23.216;2024-03-17T13:59:16;8.27;;;7.57;;
10731;SDS011;74907;42.812;23.216;2024-03-17T14:01:43;8.43;;;7.77;;
10731;SDS011;74907;42.812;23.216;2024-03-17T14:04:12;8.50;;;7.80;;
10731;SDS011;74907;42.812;23.216;2024-03-17T14:06:43;9.20;;;8.40;;
10731;SDS011;74907;42.812;23.216;2024-03-17T14:09:11;10.00;;;9.10;;
10731;SDS011;74907;42.812;23.216;2024-03-17T14:11:38;10.67;;;9.67;;
10731;SDS011;74907;42.812;23.216;2024-03-17T14:14:05;12.10;;;11.03;;
10731;SDS011;74907;42.812;23.216;2024-03-17T14:16:33;13.13;;;9.57;;
10731;SDS011;74907;42.812;23.216;2024-03-17T14:19:00;9.13;;;8.43;;
10731;SDS011;74907;42.812;23.216;2024-03-17T14:21:27;7.87;;;7.27;;
10731;SDS011;74907;42.812;23.216;2024-03-17T14:23:56;8.70;;;7.90;;